Time;durP1;ratioP1;P1;durP2;ratioP2;P2;SDS_P1;SDS_P2;PMS_P1;PMS_P2;Temp;Humidity;BMP_temperature;BMP_pressure;BME280_temperature;BME280_humidity;BME280_pressure;Samples;Min_cycle;Max_cycle;Signal;HPM_P1;HPM_P2
2023/05/24 00:01:30;;;;;;;29.02;6.10;;;;;;;;;;5032306;28;20044;-73
2023/05/24 00:03:59;;;;;;;27.42;6.40;;;;;;;;;;5034791;28;20050;-73
2023/05/24 00:06:26;;;;;;;26.90;6.18;;;;;;;;;;5035267;28;20094;-73
2023/05/24 00:08:53;;;;;;;26.45;6.47;;;;;;;;;;5033745;28;20522;-73
2023/05/24 00:11:19;;;;;;;28.67;6.53;;;;;;;;;;5017169;28;20087;-73
2023/05/24 00:13:45;;;;;;;22.33;5.70;;;;;;;;;;5033615;28;20045;-73
2023/05/24 00:16:12;;;;;;;25.92;6.32;;;;;;;;;;5034820;28;20049;-73
2023/05/24 00:18:39;;;;;;;28.33;5.85;;;;;;;;;;5015582;28;20053;-73
2023/05/24 00:21:08;;;;;;;30.38;6.70;;;;;;;;;;5034788;28;20049;-73
2023/05/24 00:23:35;;;;;;;26.05;5.70;;;;;;;;;;5034604;28;20037;-72
2023/05/24 00:26:02;;;;;;;27.98;6.57;;;;;;;;;;5017116;28;20446;-73
2023/05/24 00:28:28;;;;;;;26.10;6.65;;;;;;;;;;5033902;28;20104;-72
2023/05/24 00:30:54;;;;;;;27.60;6.70;;;;;;;;;;5034457;28;20084;-73
2023/05/24 00:33:22;;;;;;;28.48;6.43;;;;;;;;;;5034664;28;20046;-73
2023/05/24 00:35:48;;;;;;;28.13;6.38;;;;;;;;;;5030632;28;20057;-73
2023/05/24 00:38:14;;;;;;;22.92;5.80;;;;;;;;;;5014670;28;20500;-73
2023/05/24 00:40:40;;;;;;;28.50;6.13;;;;;;;;;;5032088;28;20437;-72
2023/05/24 00:43:06;;;;;;;24.45;6.15;;;;;;;;;;5034282;28;20045;-72
2023/05/24 00:45:32;;;;;;;24.17;6.38;;;;;;;;;;5016450;28;20060;-73
2023/05/24 00:48:00;;;;;;;23.60;6.50;;;;;;;;;;5034149;28;20124;-73
2023/05/24 00:50:26;;;;;;;24.60;6.20;;;;;;;;;;5032847;28;20060;-73
2023/05/24 00:52:52;;;;;;;24.10;6.28;;;;;;;;;;5033479;28;20049;-73
2023/05/24 00:55:18;;;;;;;32.53;6.70;;;;;;;;;;5033028;28;20111;-72
2023/05/24 00:57:44;;;;;;;29.85;6.43;;;;;;;;;;5029612;28;20049;-72
2023/05/24 01:00:11;;;;;;;27.30;7.22;;;;;;;;;;5033668;28;20529;-72
2023/05/24 01:02:37;;;;;;;32.45;7.18;;;;;;;;;;5033841;28;20490;-73
2023/05/24 01:05:04;;;;;;;31.95;6.65;;;;;;;;;;5034086;28;20044;-72
2023/05/24 01:07:41;;;;;;;35.92;7.00;;;;;;;;;;5032079;28;20056;-73
2023/05/24 01:10:19;;;;;;;25.10;6.78;;;;;;;;;;5030652;28;20053;-72
2023/05/24 01:12:51;;;;;;;24.13;6.25;;;;;;;;;;5034632;28;20052;-73
2023/05/24 01:15:20;;;;;;;30.08;7.20;;;;;;;;;;5033854;28;20053;-73
2023/05/24 01:17:51;;;;;;;28.27;6.57;;;;;;;;;;5032185;28;20045;-73
2023/05/24 01:20:18;;;;;;;33.42;6.93;;;;;;;;;;5033666;28;20454;-73
2023/05/24 01:23:01;;;;;;;36.15;7.10;;;;;;;;;;5033429;28;20057;-73
2023/05/24 01:25:37;;;;;;;30.17;6.88;;;;;;;;;;5004662;28;20045;-73
2023/05/24 01:28:05;;;;;;;31.02;7.22;;;;;;;;;;5019393;28;20054;-73
2023/05/24 01:30:31;;;;;;;29.83;6.70;;;;;;;;;;5006439;28;20049;-73
2023/05/24 01:32:57;;;;;;;28.20;6.57;;;;;;;;;;5033438;28;20095;-73
2023/05/24 01:35:23;;;;;;;30.75;7.40;;;;;;;;;;5031802;28;20503;-73
2023/05/24 01:37:49;;;;;;;35.28;7.38;;;;;;;;;;5032921;28;20056;-72
2023/05/24 01:40:15;;;;;;;34.33;7.35;;;;;;;;;;5033021;28;20049;-73
2023/05/24 01:43:20;;;;;;;27.58;6.88;;;;;;;;;;5015388;28;20037;-72
2023/05/24 01:46:05;;;;;;;30.55;7.03;;;;;;;;;;4952595;29;20447;-72
2023/05/24 01:48:37;;;;;;;27.92;7.00;;;;;;;;;;4970590;28;20098;-73
2023/05/24 01:51:06;;;;;;;35.45;7.40;;;;;;;;;;4972005;28;20047;-72
2023/05/24 01:53:33;;;;;;;30.40;7.50;;;;;;;;;;4968246;28;20138;-72
2023/05/24 01:56:01;;;;;;;26.52;6.85;;;;;;;;;;4952813;28;20163;-73
2023/05/24 01:58:29;;;;;;;26.00;7.25;;;;;;;;;;4952898;29;20047;-72
2023/05/24 02:00:55;;;;;;;34.67;7.15;;;;;;;;;;4953240;28;20043;-73
2023/05/24 02:03:21;;;;;;;31.50;7.25;;;;;;;;;;4952911;28;20134;-73
2023/05/24 02:05:48;;;;;;;28.90;7.20;;;;;;;;;;4952874;29;20058;-72
2023/05/24 02:08:14;;;;;;;29.40;7.03;;;;;;;;;;4953211;28;20541;-72
2023/05/24 02:10:40;;;;;;;32.22;7.35;;;;;;;;;;4952480;28;20063;-73
2023/05/24 02:13:07;;;;;;;28.77;7.32;;;;;;;;;;4952639;28;20047;-72
2023/05/24 02:15:37;;;;;;;24.20;6.90;;;;;;;;;;4959432;28;20054;-73
2023/05/24 02:18:06;;;;;;;33.22;7.53;;;;;;;;;;5013861;28;20050;-72
2023/05/24 02:20:35;;;;;;;32.60;7.47;;;;;;;;;;5015974;28;20817;-73
2023/05/24 02:23:02;;;;;;;29.33;7.38;;;;;;;;;;5032661;28;20103;-73
2023/05/24 02:25:28;;;;;;;32.08;7.25;;;;;;;;;;5031250;28;20050;-73
2023/05/24 02:27:55;;;;;;;25.42;7.35;;;;;;;;;;5032246;28;20079;-72
2023/05/24 02:30:21;;;;;;;27.02;7.65;;;;;;;;;;5032195;28;20103;-72
2023/05/24 02:32:47;;;;;;;27.80;6.90;;;;;;;;;;5032093;28;20044;-72
2023/05/24 02:35:13;;;;;;;34.42;7.43;;;;;;;;;;5028407;28;20044;-72
2023/05/24 02:37:39;;;;;;;29.80;7.45;;;;;;;;;;5027046;28;20068;-73
2023/05/24 02:40:05;;;;;;;30.95;7.70;;;;;;;;;;5032585;28;20045;-72
2023/05/24 02:42:32;;;;;;;34.53;7.30;;;;;;;;;;5030945;28;20487;-72
2023/05/24 02:44:58;;;;;;;39.50;7.65;;;;;;;;;;5031556;28;20072;-72
2023/05/24 02:47:25;;;;;;;33.90;8.70;;;;;;;;;;5028412;28;20419;-72
2023/05/24 02:49:52;;;;;;;31.23;6.90;;;;;;;;;;5031172;28;20545;-72
2023/05/24 02:52:20;;;;;;;33.47;6.88;;;;;;;;;;5030021;28;20115;-73
2023/05/24 02:54:46;;;;;;;32.95;7.60;;;;;;;;;;5029570;28;20396;-72
2023/05/24 02:57:12;;;;;;;30.98;7.93;;;;;;;;;;5015569;28;20416;-72
2023/05/24 02:59:38;;;;;;;33.60;7.80;;;;;;;;;;5032117;28;20056;-72
2023/05/24 03:02:05;;;;;;;28.15;6.90;;;;;;;;;;5031721;28;20046;-73
2023/05/24 03:04:31;;;;;;;31.73;7.10;;;;;;;;;;5012395;28;20061;-73
2023/05/24 03:06:57;;;;;;;29.73;7.00;;;;;;;;;;5030931;28;20052;-73
2023/05/24 03:09:23;;;;;;;32.28;7.50;;;;;;;;;;5031584;28;20054;-72
2023/05/24 03:11:51;;;;;;;32.00;7.38;;;;;;;;;;5030744;28;20065;-72
2023/05/24 03:14:19;;;;;;;28.35;7.18;;;;;;;;;;5030385;28;20041;-73
2023/05/24 03:16:45;;;;;;;30.70;7.53;;;;;;;;;;5031678;28;20042;-72
2023/05/24 03:19:11;;;;;;;26.73;7.03;;;;;;;;;;5032331;28;20053;-72
2023/05/24 03:21:37;;;;;;;26.38;7.18;;;;;;;;;;5031718;28;20488;-73
2023/05/24 03:24:03;;;;;;;30.25;6.68;;;;;;;;;;5032797;28;20586;-73
2023/05/24 03:26:30;;;;;;;29.83;7.93;;;;;;;;;;5034235;28;20044;-73
2023/05/24 03:28:56;;;;;;;34.75;8.07;;;;;;;;;;5033525;28;20049;-73
2023/05/24 03:31:25;;;;;;;33.40;6.97;;;;;;;;;;5033939;28;20057;-73
2023/05/24 03:33:51;;;;;;;25.63;7.07;;;;;;;;;;5030959;28;20068;-73
2023/05/24 03:36:17;;;;;;;28.17;7.50;;;;;;;;;;5032791;28;20064;-73
2023/05/24 03:38:46;;;;;;;33.05;7.45;;;;;;;;;;5034055;28;20474;-72
2023/05/24 03:41:13;;;;;;;30.10;7.03;;;;;;;;;;5032422;28;20042;-72
2023/05/24 03:43:39;;;;;;;29.90;7.22;;;;;;;;;;5035653;28;20053;-73
2023/05/24 03:46:05;;;;;;;32.63;7.00;;;;;;;;;;5033328;28;20107;-73
2023/05/24 03:48:31;;;;;;;33.80;7.20;;;;;;;;;;5016421;28;20473;-73
2023/05/24 03:50:57;;;;;;;29.48;6.85;;;;;;;;;;5033282;28;20404;-72
2023/05/24 03:53:23;;;;;;;28.70;6.85;;;;;;;;;;5034434;28;20049;-72
2023/05/24 03:55:49;;;;;;;24.98;7.72;;;;;;;;;;5033936;28;20076;-72
2023/05/24 03:58:15;;;;;;;26.15;7.28;;;;;;;;;;5016421;28;20053;-72
2023/05/24 04:00:41;;;;;;;30.40;7.13;;;;;;;;;;5033689;28;20049;-72
2023/05/24 04:03:07;;;;;;;28.85;6.78;;;;;;;;;;5034486;28;20671;-72
2023/05/24 04:05:34;;;;;;;32.17;7.18;;;;;;;;;;5013048;28;20056;-72
2023/05/24 04:08:00;;;;;;;26.77;7.05;;;;;;;;;;5033603;28;20038;-73
2023/05/24 04:10:26;;;;;;;27.27;7.22;;;;;;;;;;5034038;28;20100;-72
2023/05/24 04:12:52;;;;;;;31.17;7.20;;;;;;;;;;5034065;28;20060;-72
2023/05/24 04:15:18;;;;;;;31.85;7.22;;;;;;;;;;5033919;28;20054;-72
2023/05/24 04:17:44;;;;;;;30.70;6.82;;;;;;;;;;5031906;28;20073;-72
2023/05/24 04:20:11;;;;;;;27.30;6.90;;;;;;;;;;5015902;28;20073;-73
2023/05/24 04:22:37;;;;;;;24.33;6.50;;;;;;;;;;5033716;28;20539;-73
2023/05/24 04:25:03;;;;;;;28.30;6.38;;;;;;;;;;5032788;28;20057;-72
2023/05/24 04:27:30;;;;;;;31.83;7.07;;;;;;;;;;5033709;28;20355;-71
2023/05/24 04:29:56;;;;;;;30.42;6.55;;;;;;;;;;5015174;28;20064;-72
2023/05/24 04:32:22;;;;;;;27.95;6.78;;;;;;;;;;5029480;28;20049;-72
2023/05/24 04:34:49;;;;;;;26.00;6.32;;;;;;;;;;5031713;28;20507;-72
2023/05/24 04:37:16;;;;;;;34.55;6.82;;;;;;;;;;5032764;28;20095;-72
2023/05/24 04:39:43;;;;;;;27.15;6.35;;;;;;;;;;5021104;28;20112;-72
2023/05/24 04:42:09;;;;;;;26.08;6.03;;;;;;;;;;5033015;28;20099;-72
2023/05/24 04:44:35;;;;;;;30.35;7.07;;;;;;;;;;5031982;28;20056;-72
2023/05/24 04:47:02;;;;;;;26.88;6.65;;;;;;;;;;5012810;28;20060;-72
2023/05/24 04:49:29;;;;;;;25.92;6.10;;;;;;;;;;5011527;28;20050;-73
2023/05/24 04:51:56;;;;;;;29.23;6.55;;;;;;;;;;5011042;28;20503;-72
2023/05/24 04:54:22;;;;;;;26.95;6.30;;;;;;;;;;5012373;28;20096;-72
2023/05/24 04:56:49;;;;;;;24.45;6.63;;;;;;;;;;5012280;28;20400;-72
2023/05/24 04:59:15;;;;;;;30.80;6.38;;;;;;;;;;5012070;28;20053;-73
2023/05/24 05:01:41;;;;;;;25.45;5.97;;;;;;;;;;5011130;28;20073;-73
2023/05/24 05:04:07;;;;;;;28.65;6.30;;;;;;;;;;5013292;28;20053;-73
2023/05/24 05:06:37;;;;;;;24.63;5.45;;;;;;;;;;5014382;28;20058;-73
2023/05/24 05:09:04;;;;;;;26.45;5.78;;;;;;;;;;5011859;28;20084;-73
2023/05/24 05:11:30;;;;;;;25.42;6.40;;;;;;;;;;5013115;28;20037;-72
2023/05/24 05:13:56;;;;;;;26.85;6.32;;;;;;;;;;5013239;28;20038;-73
2023/05/24 05:16:22;;;;;;;24.30;6.25;;;;;;;;;;5013131;28;20050;-73
2023/05/24 05:18:48;;;;;;;29.20;5.82;;;;;;;;;;5011920;28;20485;-72
2023/05/24 05:21:15;;;;;;;26.70;5.60;;;;;;;;;;5012038;28;20455;-73
2023/05/24 05:23:41;;;;;;;28.40;5.90;;;;;;;;;;5012927;28;20060;-72
2023/05/24 05:26:07;;;;;;;25.73;6.25;;;;;;;;;;5013064;28;20057;-73
2023/05/24 05:28:33;;;;;;;24.40;6.00;;;;;;;;;;5011504;28;20471;-73
2023/05/24 05:30:59;;;;;;;25.85;5.75;;;;;;;;;;5007699;28;20053;-72
2023/05/24 05:33:26;;;;;;;23.73;5.43;;;;;;;;;;5012837;28;20357;-73
2023/05/24 05:35:52;;;;;;;22.98;5.20;;;;;;;;;;5012883;28;20054;-72
2023/05/24 05:38:18;;;;;;;19.92;5.32;;;;;;;;;;5011858;28;20104;-72
2023/05/24 05:40:44;;;;;;;24.75;5.07;;;;;;;;;;5012134;28;20053;-71
2023/05/24 05:43:10;;;;;;;23.08;5.03;;;;;;;;;;5009976;28;20081;-72
2023/05/24 05:45:36;;;;;;;23.15;4.97;;;;;;;;;;5010338;28;20077;-72
2023/05/24 05:48:02;;;;;;;18.42;4.78;;;;;;;;;;5028105;28;20150;-72
2023/05/24 05:50:28;;;;;;;26.98;5.22;;;;;;;;;;5023314;28;20524;-72
2023/05/24 05:52:54;;;;;;;20.90;5.22;;;;;;;;;;5016971;28;20124;-73
2023/05/24 05:55:20;;;;;;;18.35;5.00;;;;;;;;;;5031229;28;20417;-72
2023/05/24 05:57:46;;;;;;;20.38;5.03;;;;;;;;;;5028615;28;20498;-72
2023/05/24 06:00:12;;;;;;;18.00;4.90;;;;;;;;;;5031772;28;20072;-72
2023/05/24 06:02:38;;;;;;;18.40;4.57;;;;;;;;;;5030320;28;20138;-72
2023/05/24 06:05:05;;;;;;;19.88;4.72;;;;;;;;;;5029000;28;20491;-72
2023/05/24 06:07:31;;;;;;;18.67;4.93;;;;;;;;;;5013924;28;20418;-72
2023/05/24 06:09:57;;;;;;;23.48;5.72;;;;;;;;;;5022332;28;20045;-72
2023/05/24 06:12:23;;;;;;;19.73;4.82;;;;;;;;;;5028714;28;20391;-72
2023/05/24 06:14:49;;;;;;;17.85;4.55;;;;;;;;;;5019024;28;20049;-72
2023/05/24 06:17:15;;;;;;;21.17;5.32;;;;;;;;;;5031958;28;20587;-72
2023/05/24 06:19:42;;;;;;;21.58;4.80;;;;;;;;;;5032005;28;20045;-72
2023/05/24 06:22:08;;;;;;;20.25;4.68;;;;;;;;;;5031088;28;20228;-72
2023/05/24 06:24:35;;;;;;;19.33;4.70;;;;;;;;;;5028326;28;20471;-72
2023/05/24 06:27:01;;;;;;;20.45;4.50;;;;;;;;;;5027905;28;20061;-73
2023/05/24 06:29:27;;;;;;;21.42;4.55;;;;;;;;;;5030589;28;20116;-72
2023/05/24 06:31:53;;;;;;;22.23;4.47;;;;;;;;;;5031708;28;20475;-72
2023/05/24 06:34:20;;;;;;;21.98;5.15;;;;;;;;;;5027617;28;20199;-72
2023/05/24 06:36:47;;;;;;;16.73;4.35;;;;;;;;;;5031874;28;20041;-72
2023/05/24 06:39:13;;;;;;;31.00;5.82;;;;;;;;;;5031310;28;20108;-72
2023/05/24 06:41:41;;;;;;;20.88;5.05;;;;;;;;;;5014106;28;20048;-72
2023/05/24 06:44:07;;;;;;;26.27;4.78;;;;;;;;;;5031608;28;20147;-72
2023/05/24 06:46:33;;;;;;;21.33;4.95;;;;;;;;;;5031036;28;20108;-72
2023/05/24 06:48:59;;;;;;;19.17;4.18;;;;;;;;;;5029817;28;20057;-71
2023/05/24 06:51:25;;;;;;;23.13;5.28;;;;;;;;;;5031729;28;20054;-73
2023/05/24 06:53:51;;;;;;;20.48;4.63;;;;;;;;;;5028581;28;20526;-71
2023/05/24 06:56:18;;;;;;;21.98;4.82;;;;;;;;;;5011354;28;20037;-71
2023/05/24 06:58:44;;;;;;;23.00;5.05;;;;;;;;;;5025700;28;20459;-72
2023/05/24 07:01:10;;;;;;;22.70;5.03;;;;;;;;;;5032355;28;20054;-71
2023/05/24 07:03:36;;;;;;;26.98;4.88;;;;;;;;;;5034955;28;20045;-72
2023/05/24 07:06:03;;;;;;;21.75;4.53;;;;;;;;;;5034976;28;20448;-71
2023/05/24 07:08:29;;;;;;;22.08;5.25;;;;;;;;;;5034657;28;20399;-71
2023/05/24 07:10:56;;;;;;;20.23;5.00;;;;;;;;;;5017572;28;20094;-71
2023/05/24 07:13:22;;;;;;;23.48;4.47;;;;;;;;;;5035149;28;20045;-71
2023/05/24 07:15:48;;;;;;;18.42;5.22;;;;;;;;;;5034937;28;20042;-71
2023/05/24 07:18:15;;;;;;;29.70;4.72;;;;;;;;;;5035131;28;20048;-72
2023/05/24 07:20:41;;;;;;;21.40;4.82;;;;;;;;;;5034081;28;20116;-71
2023/05/24 07:23:07;;;;;;;21.75;4.28;;;;;;;;;;5033368;28;20042;-71
2023/05/24 07:25:33;;;;;;;24.13;4.53;;;;;;;;;;5033944;28;20056;-71
2023/05/24 07:28:02;;;;;;;19.23;4.57;;;;;;;;;;5001076;28;20045;-72
2023/05/24 07:30:29;;;;;;;22.88;5.10;;;;;;;;;;5039973;28;20072;-71
2023/05/24 07:32:55;;;;;;;17.70;4.38;;;;;;;;;;5052915;28;20049;-71
2023/05/24 07:35:22;;;;;;;18.33;4.43;;;;;;;;;;5054582;28;20078;-72
2023/05/24 07:37:48;;;;;;;20.75;4.00;;;;;;;;;;5054598;28;20469;-73
2023/05/24 07:40:14;;;;;;;15.60;3.95;;;;;;;;;;5054416;28;20045;-72
2023/05/24 07:42:41;;;;;;;19.20;4.65;;;;;;;;;;5054523;28;20053;-73
2023/05/24 07:45:09;;;;;;;17.63;4.40;;;;;;;;;;5041362;28;20057;-72
2023/05/24 07:47:35;;;;;;;21.77;4.18;;;;;;;;;;5033989;28;20045;-73
2023/05/24 07:50:02;;;;;;;16.10;4.00;;;;;;;;;;5024578;28;20048;-72
2023/05/24 07:52:28;;;;;;;15.75;3.78;;;;;;;;;;5032461;28;20057;-72
2023/05/24 07:54:54;;;;;;;14.90;4.35;;;;;;;;;;5030176;28;20049;-72
2023/05/24 07:57:21;;;;;;;15.15;4.30;;;;;;;;;;5033272;28;20099;-72
2023/05/24 07:59:47;;;;;;;14.10;3.38;;;;;;;;;;5029673;28;20080;-72
2023/05/24 08:02:15;;;;;;;14.18;3.40;;;;;;;;;;5032993;28;20037;-73
2023/05/24 08:04:42;;;;;;;13.73;3.42;;;;;;;;;;5036674;28;20038;-72
2023/05/24 08:07:08;;;;;;;18.45;4.15;;;;;;;;;;5026984;28;20122;-72
2023/05/24 08:09:35;;;;;;;15.95;3.28;;;;;;;;;;5028047;28;20045;-72
2023/05/24 08:12:01;;;;;;;14.07;3.55;;;;;;;;;;5009882;28;20049;-72
2023/05/24 08:14:28;;;;;;;13.38;3.00;;;;;;;;;;5024777;28;20064;-72
2023/05/24 08:16:54;;;;;;;14.43;3.67;;;;;;;;;;5027802;28;20050;-72
2023/05/24 08:19:20;;;;;;;12.98;3.53;;;;;;;;;;5034226;28;20381;-73
2023/05/24 08:21:46;;;;;;;19.25;3.90;;;;;;;;;;5032290;28;20057;-73
2023/05/24 08:24:12;;;;;;;14.10;3.45;;;;;;;;;;5039938;28;20052;-73
2023/05/24 08:26:38;;;;;;;12.02;3.53;;;;;;;;;;5022686;28;20045;-73
2023/05/24 08:29:04;;;;;;;14.52;3.47;;;;;;;;;;5030485;28;20395;-73
2023/05/24 08:31:32;;;;;;;9.80;2.80;;;;;;;;;;5032573;28;20110;-72
2023/05/24 08:33:58;;;;;;;12.07;3.20;;;;;;;;;;5030872;28;20480;-72
2023/05/24 08:36:24;;;;;;;14.20;3.63;;;;;;;;;;5029199;28;20081;-72
2023/05/24 08:38:51;;;;;;;18.95;3.60;;;;;;;;;;5021599;28;20574;-72
2023/05/24 08:41:17;;;;;;;14.23;3.40;;;;;;;;;;5031448;28;20041;-73
2023/05/24 08:43:43;;;;;;;13.32;3.17;;;;;;;;;;5033098;28;20041;-72
2023/05/24 08:46:11;;;;;;;13.00;3.25;;;;;;;;;;5031472;28;20132;-72
2023/05/24 08:48:43;;;;;;;13.10;3.38;;;;;;;;;;5032525;28;20049;-71
2023/05/24 08:51:09;;;;;;;20.80;3.60;;;;;;;;;;5013957;28;20068;-73
2023/05/24 08:53:36;;;;;;;15.57;3.47;;;;;;;;;;5032871;28;20056;-73
2023/05/24 08:56:03;;;;;;;18.00;3.97;;;;;;;;;;5035769;28;20075;-73
2023/05/24 08:58:30;;;;;;;17.65;5.55;;;;;;;;;;5030483;28;20143;-73
2023/05/24 09:00:56;;;;;;;18.23;3.92;;;;;;;;;;5025406;28;20081;-73
2023/05/24 09:03:23;;;;;;;19.23;3.72;;;;;;;;;;5030496;28;20048;-73
2023/05/24 09:05:49;;;;;;;19.67;4.07;;;;;;;;;;5031272;28;20511;-73
2023/05/24 09:08:17;;;;;;;16.13;4.30;;;;;;;;;;5028239;28;20052;-73
2023/05/24 09:10:43;;;;;;;17.85;3.70;;;;;;;;;;5031078;28;20045;-73
2023/05/24 09:13:10;;;;;;;14.38;3.20;;;;;;;;;;5032962;28;20452;-73
2023/05/24 09:15:36;;;;;;;13.25;3.50;;;;;;;;;;5022840;28;20058;-73
2023/05/24 09:18:02;;;;;;;18.35;3.75;;;;;;;;;;4995020;28;20118;-73
2023/05/24 09:20:28;;;;;;;15.23;3.53;;;;;;;;;;5026780;28;20149;-73
2023/05/24 09:22:56;;;;;;;11.85;3.15;;;;;;;;;;5031867;28;20037;-73
2023/05/24 09:25:22;;;;;;;18.05;3.40;;;;;;;;;;5013561;28;20068;-73
2023/05/24 09:27:52;;;;;;;14.18;3.67;;;;;;;;;;5031855;28;20045;-74
2023/05/24 09:30:19;;;;;;;15.85;3.17;;;;;;;;;;5031887;28;20049;-74
2023/05/24 09:32:55;;;;;;;12.93;3.50;;;;;;;;;;5030787;28;20491;-73
2023/05/24 09:35:21;;;;;;;18.67;3.80;;;;;;;;;;5041321;28;20060;-73
2023/05/24 09:37:47;;;;;;;15.27;3.35;;;;;;;;;;5041991;28;20496;-73
2023/05/24 09:40:20;;;;;;;15.85;3.55;;;;;;;;;;5032483;28;20056;-74
2023/05/24 09:42:50;;;;;;;15.77;4.80;;;;;;;;;;5032196;28;20052;-74
2023/05/24 09:45:16;;;;;;;11.27;3.38;;;;;;;;;;5027212;28;20468;-73
2023/05/24 09:47:45;;;;;;;15.85;3.97;;;;;;;;;;5012634;28;20519;-74
2023/05/24 09:50:12;;;;;;;14.05;3.28;;;;;;;;;;5026798;28;20041;-73
2023/05/24 09:52:39;;;;;;;12.48;3.15;;;;;;;;;;4998328;28;20053;-73
2023/05/24 09:55:16;;;;;;;12.85;2.80;;;;;;;;;;5029694;28;20038;-73
2023/05/24 09:57:49;;;;;;;11.23;3.58;;;;;;;;;;5029286;28;20459;-73
2023/05/24 10:00:21;;;;;;;13.00;3.15;;;;;;;;;;5024737;28;20038;-73
2023/05/24 10:02:59;;;;;;;14.40;3.58;;;;;;;;;;5014575;28;20103;-73
2023/05/24 10:05:26;;;;;;;17.48;3.85;;;;;;;;;;5028091;28;20080;-73
2023/05/24 10:07:52;;;;;;;15.13;3.83;;;;;;;;;;5020604;28;20049;-73
2023/05/24 10:10:18;;;;;;;13.27;3.88;;;;;;;;;;5030564;28;20045;-73
2023/05/24 10:12:46;;;;;;;13.45;3.72;;;;;;;;;;5023077;28;20048;-72
2023/05/24 10:15:12;;;;;;;16.15;3.42;;;;;;;;;;5010050;28;20052;-73
2023/05/24 10:17:38;;;;;;;12.13;3.20;;;;;;;;;;5029754;28;20049;-73
2023/05/24 10:20:05;;;;;;;10.95;3.00;;;;;;;;;;5028689;28;20073;-72
2023/05/24 10:22:34;;;;;;;11.63;2.92;;;;;;;;;;5026066;28;20492;-72
2023/05/24 10:25:01;;;;;;;13.13;3.65;;;;;;;;;;5027845;28;20041;-72
2023/05/24 10:27:29;;;;;;;11.23;3.13;;;;;;;;;;5026025;28;20045;-72
2023/05/24 10:29:58;;;;;;;15.13;3.63;;;;;;;;;;5028447;28;20038;-72
2023/05/24 10:32:25;;;;;;;12.00;3.25;;;;;;;;;;5023182;28;20071;-72
2023/05/24 10:34:52;;;;;;;15.60;3.60;;;;;;;;;;5033283;28;20088;-72
2023/05/24 10:37:19;;;;;;;16.55;3.65;;;;;;;;;;5034074;28;20060;-72
2023/05/24 10:39:45;;;;;;;14.27;3.30;;;;;;;;;;5026344;28;20049;-72
2023/05/24 10:42:12;;;;;;;13.20;3.40;;;;;;;;;;5029225;28;20176;-66
2023/05/24 10:44:38;;;;;;;13.05;3.67;;;;;;;;;;5029898;28;20562;-65
2023/05/24 10:47:11;;;;;;;15.75;3.80;;;;;;;;;;5037824;28;20415;-65
2023/05/24 10:49:38;;;;;;;19.77;4.95;;;;;;;;;;5007671;28;20045;-65
2023/05/24 10:52:08;;;;;;;13.07;3.50;;;;;;;;;;5025482;28;20049;-65
2023/05/24 10:54:35;;;;;;;13.60;3.75;;;;;;;;;;5032316;28;20099;-66
2023/05/24 10:57:03;;;;;;;20.92;4.30;;;;;;;;;;5032499;28;20056;-66
2023/05/24 10:59:38;;;;;;;13.20;3.17;;;;;;;;;;5012028;28;20056;-66
2023/05/24 11:02:08;;;;;;;14.40;3.00;;;;;;;;;;5033817;28;20054;-66
2023/05/24 11:04:37;;;;;;;14.23;3.63;;;;;;;;;;5034128;28;20038;-66
2023/05/24 11:07:04;;;;;;;12.80;3.47;;;;;;;;;;5048225;28;20064;-65
2023/05/24 11:09:31;;;;;;;13.60;3.60;;;;;;;;;;5027976;28;20042;-66
2023/05/24 11:12:01;;;;;;;15.07;3.20;;;;;;;;;;5030716;28;20120;-66
2023/05/24 11:14:28;;;;;;;15.38;3.50;;;;;;;;;;5032446;28;20060;-66
2023/05/24 11:16:54;;;;;;;14.57;3.60;;;;;;;;;;5023613;28;20048;-66
2023/05/24 11:19:22;;;;;;;14.43;3.72;;;;;;;;;;5014447;28;20045;-65
2023/05/24 11:21:49;;;;;;;16.05;3.60;;;;;;;;;;5032590;28;20041;-66
2023/05/24 11:24:16;;;;;;;14.00;3.40;;;;;;;;;;5031023;28;20033;-65
2023/05/24 11:26:43;;;;;;;14.07;3.80;;;;;;;;;;5031678;28;20128;-66
2023/05/24 11:29:09;;;;;;;16.10;3.92;;;;;;;;;;5028605;28;20046;-67
2023/05/24 11:31:38;;;;;;;11.68;3.20;;;;;;;;;;5030837;28;20045;-71
2023/05/24 11:34:05;;;;;;;14.15;3.28;;;;;;;;;;5032341;28;20041;-71
2023/05/24 11:36:32;;;;;;;14.73;3.15;;;;;;;;;;5033023;28;20411;-73
2023/05/24 11:38:58;;;;;;;14.27;3.63;;;;;;;;;;5034022;28;20041;-71
2023/05/24 11:41:24;;;;;;;13.63;3.35;;;;;;;;;;5034033;28;20049;-71
2023/05/24 11:43:50;;;;;;;17.20;3.80;;;;;;;;;;5022447;28;20095;-71
2023/05/24 11:46:19;;;;;;;13.50;3.92;;;;;;;;;;5033856;28;20145;-72
2023/05/24 11:48:54;;;;;;;43.45;7.80;;;;;;;;;;5032604;28;20045;-71
2023/05/24 11:51:25;;;;;;;14.90;3.50;;;;;;;;;;5034052;28;20053;-72
2023/05/24 11:53:51;;;;;;;13.23;3.50;;;;;;;;;;5027244;28;20041;-71
2023/05/24 11:56:17;;;;;;;16.98;4.07;;;;;;;;;;5032691;28;20046;-72
2023/05/24 11:58:50;;;;;;;17.45;3.40;;;;;;;;;;5029572;28;20048;-71
2023/05/24 12:01:23;;;;;;;12.38;3.72;;;;;;;;;;5031772;28;20478;-71
2023/05/24 12:03:50;;;;;;;13.18;3.20;;;;;;;;;;5033967;28;20049;-71
2023/05/24 12:06:16;;;;;;;13.10;3.33;;;;;;;;;;5032667;28;20124;-71
2023/05/24 12:08:42;;;;;;;15.75;3.38;;;;;;;;;;5030004;28;20049;-71
2023/05/24 12:11:08;;;;;;;13.98;3.50;;;;;;;;;;5033576;28;20054;-71
2023/05/24 12:13:35;;;;;;;14.15;4.03;;;;;;;;;;5031563;28;20427;-71
2023/05/24 12:16:02;;;;;;;16.58;3.42;;;;;;;;;;5033487;28;20133;-71
2023/05/24 12:18:28;;;;;;;15.50;3.85;;;;;;;;;;5042278;28;20053;-72
2023/05/24 12:20:54;;;;;;;14.60;3.60;;;;;;;;;;5044008;28;20048;-72
2023/05/24 12:23:22;;;;;;;11.50;3.45;;;;;;;;;;5033677;28;20049;-71
2023/05/24 12:25:49;;;;;;;16.20;3.58;;;;;;;;;;5033428;28;20049;-71
2023/05/24 12:28:15;;;;;;;12.23;3.00;;;;;;;;;;5033915;28;20191;-72
2023/05/24 12:30:43;;;;;;;13.15;3.05;;;;;;;;;;5032384;28;20064;-72
2023/05/24 12:33:10;;;;;;;11.43;2.80;;;;;;;;;;5040724;28;20124;-71
2023/05/24 12:35:37;;;;;;;13.20;3.25;;;;;;;;;;5038352;28;20049;-71
2023/05/24 12:38:03;;;;;;;13.07;2.97;;;;;;;;;;5031637;28;20077;-71
2023/05/24 12:40:32;;;;;;;15.20;3.55;;;;;;;;;;5033384;28;20049;-72
2023/05/24 12:42:59;;;;;;;14.57;3.42;;;;;;;;;;5030696;28;20487;-72
2023/05/24 12:45:26;;;;;;;13.02;3.83;;;;;;;;;;5030504;28;20144;-72
2023/05/24 12:47:52;;;;;;;12.68;3.28;;;;;;;;;;5034238;28;20113;-71
2023/05/24 12:50:20;;;;;;;12.15;3.10;;;;;;;;;;5031965;28;20071;-71
2023/05/24 12:52:46;;;;;;;14.13;3.70;;;;;;;;;;5013323;28;20056;-72
2023/05/24 12:55:15;;;;;;;15.23;3.95;;;;;;;;;;5032444;28;20403;-72
2023/05/24 12:57:42;;;;;;;14.43;3.15;;;;;;;;;;5032839;28;20045;-71
2023/05/24 13:00:09;;;;;;;14.68;3.15;;;;;;;;;;5033428;28;20037;-71
2023/05/24 13:02:36;;;;;;;13.07;3.50;;;;;;;;;;5033307;28;20125;-72
2023/05/24 13:05:02;;;;;;;13.70;3.40;;;;;;;;;;5029992;28;20091;-72
2023/05/24 13:07:29;;;;;;;16.80;3.30;;;;;;;;;;5032771;28;20109;-72
2023/05/24 13:09:57;;;;;;;16.75;3.42;;;;;;;;;;5033157;28;20136;-72
2023/05/24 13:12:23;;;;;;;11.45;3.80;;;;;;;;;;5018221;28;20034;-72
2023/05/24 13:14:49;;;;;;;11.10;3.20;;;;;;;;;;5032787;28;20053;-72
2023/05/24 13:17:16;;;;;;;10.35;2.90;;;;;;;;;;5033788;28;20049;-72
2023/05/24 13:19:42;;;;;;;15.88;3.45;;;;;;;;;;5041838;28;20041;-72
2023/05/24 13:22:09;;;;;;;15.50;3.92;;;;;;;;;;5042285;28;20049;-71
2023/05/24 13:24:35;;;;;;;13.02;3.33;;;;;;;;;;5034809;28;20033;-72
2023/05/24 13:27:02;;;;;;;13.77;3.35;;;;;;;;;;5037921;28;20132;-72
2023/05/24 13:29:28;;;;;;;14.88;3.28;;;;;;;;;;5014857;28;20479;-72
2023/05/24 13:31:55;;;;;;;14.13;3.75;;;;;;;;;;5032585;28;20116;-72
2023/05/24 13:34:25;;;;;;;15.13;3.40;;;;;;;;;;5032054;28;20057;-72
2023/05/24 13:36:51;;;;;;;11.38;3.10;;;;;;;;;;5044253;28;20092;-72
2023/05/24 13:39:18;;;;;;;12.35;2.95;;;;;;;;;;5038401;28;20052;-72
2023/05/24 13:41:44;;;;;;;13.70;3.53;;;;;;;;;;5030106;28;20049;-72
2023/05/24 13:44:11;;;;;;;12.55;3.38;;;;;;;;;;5031327;28;20049;-72
2023/05/24 13:46:37;;;;;;;13.60;3.20;;;;;;;;;;5032198;28;20063;-72
2023/05/24 13:49:03;;;;;;;14.65;3.30;;;;;;;;;;5030638;28;20068;-72
2023/05/24 13:51:29;;;;;;;13.90;3.60;;;;;;;;;;5031882;28;20053;-72
2023/05/24 13:53:55;;;;;;;14.38;3.50;;;;;;;;;;5012726;28;20037;-72
2023/05/24 13:56:22;;;;;;;16.00;3.70;;;;;;;;;;5019103;28;20435;-72
2023/05/24 13:58:49;;;;;;;16.48;3.65;;;;;;;;;;5030603;28;20103;-71
2023/05/24 14:01:15;;;;;;;12.70;3.67;;;;;;;;;;5010401;28;20484;-72
2023/05/24 14:03:41;;;;;;;15.85;3.60;;;;;;;;;;5026883;28;20049;-72
2023/05/24 14:06:08;;;;;;;15.82;3.60;;;;;;;;;;5050559;28;20479;-72
2023/05/24 14:08:37;;;;;;;16.15;3.83;;;;;;;;;;5050499;28;20415;-72
2023/05/24 14:11:03;;;;;;;14.90;3.75;;;;;;;;;;5052154;28;20111;-72
2023/05/24 14:13:29;;;;;;;15.10;3.70;;;;;;;;;;5051831;28;20124;-73
2023/05/24 14:15:55;;;;;;;15.85;4.00;;;;;;;;;;5051891;28;20083;-72
2023/05/24 14:18:21;;;;;;;16.38;3.65;;;;;;;;;;5031548;28;20057;-72
2023/05/24 14:20:47;;;;;;;14.32;3.38;;;;;;;;;;5031423;28;20488;-72
2023/05/24 14:23:15;;;;;;;14.70;3.35;;;;;;;;;;5032007;28;20050;-73
2023/05/24 14:25:41;;;;;;;16.75;3.95;;;;;;;;;;5031914;28;20049;-74
2023/05/24 14:28:07;;;;;;;15.68;3.25;;;;;;;;;;5030527;28;20045;-74
2023/05/24 14:30:36;;;;;;;13.98;3.50;;;;;;;;;;5028185;28;20098;-74